Latest Coastal Weather Observations for Wynyard

IDT60701

Issued at 2:42 pm EDT Friday 24 November 2017 (issued every 10 minutes, with the page automatically refreshed every 10 minutes)

About coastal observations | Map of coastal stations | Coastal observations for TAS | Marine services | Other Formats
Station Details ID: 091107 Name: WYNYARD AIRPORT Lat: -41.00 Lon: 145.73 Height: 12.0 m
Data from the previous 72 hours. | See also: Recent months at Wynyard
Date/Time
EDT
Temp
°C
Wind Pressure Rain since
9am
mm
Weather Cloud Vis
km
Sea
Height
m
Swell
Dir  Spd
kts
Gust
kts
hPa Trend Height
m
Period
s
Dir
24/02:30pm 19.7 NNE 9 11 1013.1 - 0.0 - Clear 10 - - - -
24/02:00pm 20.2 NNE 9 12 1013.1 - 0.0 - - 10 - - - -
24/01:30pm 21.2 NNE 9 11 1013.3 - 0.0 - - 10 - - - -
24/01:00pm 21.2 NE 10 11 1013.8 - 0.0 - - 10 - - - -
24/12:30pm 21.9 NNE 8 11 1014.1 - 0.0 - - 10 - - - -
24/12:00pm 22.4 NNE 6 10 1014.0 - 0.0 - - 10 - - - -
24/11:30am 21.8 NNE 7 10 1014.1 - 0.0 - - 10 - - - -
24/11:00am 21.4 NNE 6 8 1013.9 - 0.0 - - 10 - - - -
24/10:30am 20.5 N 5 8 1013.9 - 0.0 - - 10 - - - -
24/10:00am 21.2 NE 5 7 1013.5 - 0.0 - - 10 - - - -
24/09:30am 21.2 NE 5 7 1013.3 - 0.0 - - 10 - - - -
24/09:00am 21.4 NE 6 8 1013.1 - 0.0 - - 10 - - - -
24/08:30am 21.2 E 4 7 1012.7 - 0.0 - - 10 - - - -
24/08:00am 20.1 ESE 4 5 1012.6 - 0.0 - - 10 - - - -
24/07:30am 18.1 CALM 0 3 1012.3 - 0.0 - - 10 - - - -
24/07:00am 16.7 S 3 4 1012.3 - 0.0 - - 10 - - - -
24/06:30am 15.2 S 3 4 1012.0 - 0.0 - - 10 - - - -
24/06:00am 13.3 SE 5 8 1011.9 - 0.0 - - 10 - - - -
24/05:30am 13.1 S 5 6 1012.5 - 0.0 - - 7 - - - -
24/05:00am 14.1 SSE 5 7 1011.9 - 0.0 - - 10 - - - -
24/04:30am 15.0 WSW 4 5 1012.1 - 0.0 - - 10 - - - -
24/04:16am 15.7 SSW 5 7 1012.0 - 0.0 - Partly cloudy 10 - - - -
24/04:00am 16.5 SSW 5 7 1011.8 - 0.0 - Partly cloudy 10 - - - -
24/03:30am 16.8 S 5 6 1012.0 - 0.0 - Cloudy 10 - - - -
24/03:00am 17.4 WSW 3 4 1012.1 - 0.0 - Mostly cloudy 10 - - - -
24/02:30am 16.8 SSE 3 5 1011.9 - 0.0 - Partly cloudy 10 - - - -
24/02:00am 17.7 ESE 6 9 1011.5 - 0.0 - Cloudy 10 - - - -
24/01:30am 17.9 ESE 6 8 1011.9 - 0.0 - Cloudy 10 - - - -
24/01:00am 17.8 ESE 7 10 1011.9 - 0.0 - Cloudy 10 - - - -
24/12:30am 17.9 ESE 8 11 1012.1 - 0.0 - Cloudy 10 - - - -
24/12:00am 17.9 ESE 9 13 1012.4 - 0.0 - Mostly cloudy 10 - - - -
 
Date/Time
EDT
Temp
°C
Wind Pressure Rain since
9am
mm
Weather Cloud Vis
km
Sea
Height
m
Swell
Dir  Spd
kts
Gust
kts
hPa Trend Height
m
Period
s
Dir
23/11:30pm 17.8 ESE 7 11 1012.7 - 0.0 - Cloudy 10 - - - -
23/11:00pm 17.2 SE 7 10 1012.9 - 0.0 - Cloudy 10 - - - -
23/10:45pm 16.9 SE 5 6 1012.9 - 0.0 - Partly cloudy 10 - - - -
23/10:30pm 16.9 ESE 6 8 1012.9 - 0.0 - - 10 - - - -
23/10:00pm 17.1 ESE 5 10 1012.7 - 0.0 - - 10 - - - -
23/09:30pm 17.2 ESE 7 10 1012.4 - 0.0 - - 10 - - - -
23/09:00pm 17.3 SE 6 8 1012.1 - 0.0 - - 10 - - - -
23/08:30pm 17.6 ESE 7 10 1011.9 - 0.0 - - 10 - - - -
23/08:00pm 18.3 ESE 8 10 1012.0 - 0.0 - - 10 - - - -
23/07:30pm 18.9 ESE 9 12 1011.8 - 0.0 - - 10 - - - -
23/07:00pm 19.6 ESE 8 11 1011.6 - 0.0 - - 10 - - - -
23/06:30pm 19.5 E 8 12 1011.3 - 0.0 - - 10 - - - -
23/06:00pm 20.6 E 7 10 1011.3 - 0.0 - - 10 - - - -
23/05:30pm 19.9 E 8 11 1011.5 - 0.0 - - 10 - - - -
23/05:00pm 20.0 E 9 13 1011.5 - 0.0 - - 10 - - - -
23/04:30pm 20.4 ENE 9 13 1011.8 - 0.0 - - 10 - - - -
23/04:00pm 21.0 E 9 14 1012.1 - 0.0 - - 10 - - - -
23/03:30pm 20.7 E 10 15 1012.6 - 0.0 - - 10 - - - -
23/03:00pm 21.0 E 10 15 1012.7 - 0.0 - - 10 - - - -
23/02:30pm 20.9 E 10 15 1013.1 - 0.0 - - 10 - - - -
23/02:00pm 21.0 E 11 15 1013.4 - 0.0 - - 10 - - - -
23/01:30pm 21.3 E 10 15 1013.6 - 0.0 - - 10 - - - -
23/01:00pm 21.5 E 12 17 1013.8 - 0.0 - Partly cloudy 10 - - - -
23/12:30pm 21.2 E 12 17 1014.1 - 0.0 - Partly cloudy 10 - - - -
23/12:00pm 20.1 E 12 17 1014.4 - 0.0 - Mostly clear 10 - - - -
23/11:30am 19.9 E 14 20 1014.7 - 0.0 - - 10 - - - -
23/11:00am 20.2 E 13 22 1014.7 - 0.0 - - 10 - - - -
23/10:30am 20.3 E 13 18 1014.6 - 0.0 - - 10 - - - -
23/10:00am 19.7 E 15 22 1014.8 - 0.0 - - 10 - - - -
23/09:30am 19.3 E 15 21 1014.9 - 0.0 - - 10 - - - -
23/09:00am 18.9 E 13 20 1014.9 - 0.0 - - 10 - - - -
23/08:30am 18.6 E 13 19 1015.0 - 0.0 - - 10 - - - -
23/08:00am 17.9 E 13 18 1015.0 - 0.0 - - 10 - - - -
23/07:30am 17.6 ESE 12 17 1015.0 - 0.0 - - 10 - - - -
23/07:00am 17.0 ESE 11 14 1015.1 - 0.0 - - 10 - - - -
23/06:30am 15.9 ESE 8 10 1015.2 - 0.0 - - 10 - - - -
23/06:00am 15.3 SE 7 11 1015.2 - 0.0 - - 10 - - - -
23/05:30am 15.3 SE 9 11 1015.1 - 0.0 - Partly cloudy 10 - - - -
23/05:00am 15.7 SE 8 12 1015.3 - 0.0 - Partly cloudy 10 - - - -
23/04:30am 16.1 ESE 11 16 1015.5 - 0.0 - Partly cloudy 10 - - - -
23/04:00am 16.3 ESE 11 16 1015.8 - 0.0 - Partly cloudy 10 - - - -
23/03:30am 16.5 ESE 12 18 1016.1 - 0.0 - Partly cloudy 10 - - - -
23/03:00am 16.6 E 10 16 1016.4 - 0.0 - Cloudy 10 - - - -
23/02:30am 16.6 E 10 17 1016.6 - 0.0 - Partly cloudy 10 - - - -
23/02:22am 16.6 E 12 17 1016.6 - 0.0 - Partly cloudy 10 - - - -
23/02:00am 16.8 E 12 18 1016.8 - 0.0 - Partly cloudy 10 - - - -
23/01:30am 16.7 ESE 12 17 1017.1 - 0.0 - Partly cloudy 10 - - - -
23/01:00am 16.8 ESE 12 17 1017.3 - 0.0 - Partly cloudy 10 - - - -
23/12:31am 17.0 ESE 12 17 1017.5 - 0.0 - Partly cloudy 10 - - - -
23/12:30am 17.0 ESE 12 17 1017.5 - 0.0 - Partly cloudy 10 - - - -
23/12:00am 17.0 ESE 11 15 1017.7 - 0.0 - Cloudy 10 - - - -
 
Date/Time
EDT
Temp
°C
Wind Pressure Rain since
9am
mm
Weather Cloud Vis
km
Sea
Height
m
Swell
Dir  Spd
kts
Gust
kts
hPa Trend Height
m
Period
s
Dir
22/11:30pm 16.9 ESE 9 13 1017.8 - 0.0 - Cloudy 10 - - - -
22/11:00pm 16.3 SE 8 10 1018.0 - 0.0 - Cloudy 10 - - - -
22/10:30pm 15.4 SE 6 7 1018.1 - 0.0 - Partly cloudy 10 - - - -
22/10:00pm 15.7 SE 7 8 1018.2 - 0.0 - Partly cloudy 10 - - - -
22/09:30pm 16.1 ESE 7 10 1018.2 - 0.0 - - 10 - - - -
22/09:00pm 16.5 ESE 9 12 1018.1 - 0.0 - - 10 - - - -
22/08:30pm 16.6 ESE 8 13 1017.9 - 0.0 - - 10 - - - -
22/08:00pm 17.3 ESE 9 13 1017.8 - 0.0 - - 10 - - - -
22/07:30pm 18.0 E 9 12 1017.8 - 0.0 - - 10 - - - -
22/07:00pm 18.5 E 8 12 1017.8 - 0.0 - - 10 - - - -
22/06:30pm 19.2 E 9 13 1017.6 - 0.0 - - 10 - - - -
22/06:00pm 19.1 E 9 13 1017.6 - 0.0 - - 10 - - - -
22/05:30pm 19.3 E 8 12 1017.9 - 0.0 - - 10 - - - -
22/05:00pm 19.7 E 8 12 1018.0 - 0.0 - - 10 - - - -
22/04:30pm 19.7 E 8 12 1018.2 - 0.0 - - 10 - - - -
22/04:00pm 19.8 E 9 12 1018.6 - 0.0 - - 10 - - - -
22/03:30pm 20.4 E 9 12 1018.8 - 0.0 - - 10 - - - -
22/03:00pm 20.7 E 9 13 1019.2 - 0.0 - - 10 - - - -
22/02:30pm 20.2 ENE 10 13 1019.6 - 0.0 - - 10 - - - -
22/02:00pm 19.9 E 9 13 1019.9 - 0.0 - - 10 - - - -
22/01:30pm 20.4 ENE 8 13 1020.2 - 0.0 - - 10 - - - -
22/01:00pm 19.9 E 10 16 1020.4 - 0.0 - - 10 - - - -
22/12:30pm 20.3 E 10 15 1020.7 - 0.0 - - 10 - - - -
22/12:00pm 20.1 ESE 14 19 1020.8 - 0.0 - Mostly clear 10 - - - -
22/11:30am 20.4 E 10 18 1020.9 - 0.0 - Partly cloudy 10 - - - -
22/11:00am 20.0 E 11 16 1021.1 - 0.0 - - 10 - - - -
22/10:30am 20.0 E 10 16 1021.0 - 0.0 - Partly cloudy 10 - - - -
22/10:00am 19.6 ESE 14 19 1021.0 - 0.0 - Partly cloudy 10 - - - -
22/09:30am 19.2 ESE 13 18 1021.2 - 0.0 - Partly cloudy 10 - - - -
22/09:00am 18.4 ESE 14 19 1021.4 - 0.0 - Mostly clear 10 - - - -
22/08:30am 18.7 E 11 16 1021.5 - 0.0 - Partly cloudy 10 - - - -
22/08:00am 17.6 E 11 17 1021.4 - 0.0 - Cloudy 10 - - - -
22/07:30am 17.1 E 10 15 1021.4 - 0.0 - Partly cloudy 10 - - - -
22/07:00am 16.5 E 11 15 1021.2 - 0.0 - Partly cloudy 10 - - - -
22/06:30am 16.2 E 9 15 1021.1 - 0.0 - Partly cloudy 10 - - - -
22/06:00am 15.9 E 9 15 1020.9 - 0.0 - Partly cloudy 10 - - - -
22/05:30am 15.8 E 10 15 1020.8 - 0.0 - Partly cloudy 10 - - - -
22/05:00am 15.7 ESE 11 17 1020.8 - 0.0 - Partly cloudy 10 - - - -
22/04:30am 15.7 E 10 14 1020.7 - 0.0 - Partly cloudy 10 - - - -
22/04:00am 15.7 E 11 15 1020.8 - 0.0 - Partly cloudy 10 - - - -
22/03:30am 15.9 ESE 12 17 1020.9 - 0.0 - Partly cloudy 10 - - - -
22/03:00am 16.0 E 12 18 1021.1 - 0.0 - Partly cloudy 10 - - - -
22/02:30am 15.9 E 11 15 1021.2 - 0.0 - Partly cloudy 10 - - - -
22/02:04am 16.0 E 11 18 1021.5 - 0.0 - Partly cloudy 10 - - - -
22/02:00am 16.1 E 11 18 1021.5 - 0.0 - Partly cloudy 10 - - - -
22/01:43am 16.1 ESE 13 18 1021.6 - 0.0 - Partly cloudy 10 - - - -
22/01:30am 16.1 ESE 11 17 1021.7 - 0.0 - Partly cloudy 10 - - - -
22/01:00am 16.0 ESE 10 15 1021.9 - 0.0 - - 10 - - - -
22/12:30am 16.1 ESE 11 15 1022.2 - 0.0 - - 10 - - - -
22/12:00am 16.1 ESE 9 12 1022.4 - 0.0 - - 10 - - - -
 
Date/Time
EDT
Temp
°C
Wind Pressure Rain since
9am
mm
Weather Cloud Vis
km
Sea
Height
m
Swell
Dir  Spd
kts
Gust
kts
hPa Trend Height
m
Period
s
Dir
21/11:30pm 16.3 E 9 12 1022.4 - 0.0 - - 10 - - - -
21/11:00pm 16.3 E 7 9 1022.6 - 0.0 - - 10 - - - -
21/10:30pm 16.2 E 6 9 1022.7 - 0.0 - - 10 - - - -
21/10:00pm 15.3 ESE 5 7 1022.5 - 0.0 - - 10 - - - -
21/09:30pm 15.9 SE 6 8 1022.3 - 0.0 - - 10 - - - -
21/09:00pm 16.1 ESE 6 8 1022.0 - 0.0 - - 10 - - - -
21/08:30pm 16.5 E 6 8 1021.8 - 0.0 - - 10 - - - -
21/08:00pm 17.3 E 6 7 1021.7 - 0.0 - - 10 - - - -
21/07:30pm 18.2 E 6 9 1021.7 - 0.0 - - 10 - - - -
21/07:00pm 19.2 E 7 11 1021.7 - 0.0 - - 10 - - - -
21/06:30pm 19.6 E 7 10 1021.6 - 0.0 - - 10 - - - -
21/06:00pm 19.9 E 9 12 1021.6 - 0.0 - - 10 - - - -
21/05:30pm 20.1 E 9 13 1021.8 - 0.0 - - 10 - - - -
21/05:00pm 20.6 E 8 13 1022.0 - 0.0 - - 10 - - - -
21/04:30pm 20.8 E 9 14 1022.1 - 0.0 - - 10 - - - -
21/04:00pm 20.6 E 10 15 1022.3 - 0.0 - - 10 - - - -
21/03:30pm 20.8 ESE 11 14 1022.6 - 0.0 - - 10 - - - -
21/03:00pm 20.5 E 11 16 1023.0 - 0.0 - - 10 - - - -

Other Formats:

Comma delimited format used in spreadsheet applications
http://www.bom.gov.au/fwo/IDT60701/IDT60701.95957.axf

JavaScript Object Notation format (JSON) in row-major order
http://www.bom.gov.au/fwo/IDT60701/IDT60701.95957.json